sensor_id;sensor_type;location;lat;lon;timestamp;pressure;altitude;pressure_sealevel;temperature;humidity
7930;BME280;4010;42.698;23.124;2023-08-12T00:02:24;118349.16;;;-140.64;100.00
7930;BME280;4010;42.698;23.124;2023-08-12T00:04:51;118349.16;;;-140.64;100.00
7930;BME280;4010;42.698;23.124;2023-08-12T00:07:18;118349.16;;;-140.64;100.00
7930;BME280;4010;42.698;23.124;2023-08-12T00:09:46;118349.16;;;-140.64;100.00
7930;BME280;4010;42.698;23.124;2023-08-12T00:12:12;118349.16;;;-140.64;100.00
7930;BME280;4010;42.698;23.124;2023-08-12T00:14:39;118349.16;;;-140.64;100.00
7930;BME280;4010;42.698;23.124;2023-08-12T00:17:06;118349.16;;;-140.64;100.00
7930;BME280;4010;42.698;23.124;2023-08-12T00:19:32;118349.16;;;-140.64;100.00
7930;BME280;4010;42.698;23.124;2023-08-12T00:21:59;118349.16;;;-140.64;100.00
7930;BME280;4010;42.698;23.124;2023-08-12T00:24:25;118349.16;;;-140.64;100.00
7930;BME280;4010;42.698;23.124;2023-08-12T00:26:53;118349.16;;;-140.64;100.00
7930;BME280;4010;42.698;23.124;2023-08-12T00:29:20;118349.16;;;-140.64;100.00
7930;BME280;4010;42.698;23.124;2023-08-12T00:31:47;118349.16;;;-140.64;100.00
7930;BME280;4010;42.698;23.124;2023-08-12T00:34:14;118349.16;;;-140.64;100.00
7930;BME280;4010;42.698;23.124;2023-08-12T00:36:40;118349.16;;;-140.64;100.00
7930;BME280;4010;42.698;23.124;2023-08-12T00:39:07;118349.16;;;-140.64;100.00
7930;BME280;4010;42.698;23.124;2023-08-12T00:41:34;118349.16;;;-140.64;100.00
7930;BME280;4010;42.698;23.124;2023-08-12T00:44:02;118349.16;;;-140.64;100.00
7930;BME280;4010;42.698;23.124;2023-08-12T00:46:28;118349.16;;;-140.64;100.00
7930;BME280;4010;42.698;23.124;2023-08-12T00:48:55;118349.16;;;-140.64;100.00
7930;BME280;4010;42.698;23.124;2023-08-12T00:51:22;118349.16;;;-140.64;100.00
7930;BME280;4010;42.698;23.124;2023-08-12T00:53:50;118349.16;;;-140.64;100.00
7930;BME280;4010;42.698;23.124;2023-08-12T00:56:17;118349.16;;;-140.64;100.00
7930;BME280;4010;42.698;23.124;2023-08-12T00:58:44;118349.16;;;-140.64;100.00
7930;BME280;4010;42.698;23.124;2023-08-12T01:01:13;118349.16;;;-140.64;100.00
7930;BME280;4010;42.698;23.124;2023-08-12T01:03:40;118349.16;;;-140.64;100.00
7930;BME280;4010;42.698;23.124;2023-08-12T01:06:07;118349.16;;;-140.64;100.00
7930;BME280;4010;42.698;23.124;2023-08-12T01:08:35;118349.16;;;-140.64;100.00
7930;BME280;4010;42.698;23.124;2023-08-12T01:11:04;118349.16;;;-140.64;100.00
7930;BME280;4010;42.698;23.124;2023-08-12T01:13:39;118349.16;;;-140.64;100.00
7930;BME280;4010;42.698;23.124;2023-08-12T01:16:10;118349.16;;;-140.64;100.00
7930;BME280;4010;42.698;23.124;2023-08-12T01:18:41;118349.16;;;-140.64;100.00
7930;BME280;4010;42.698;23.124;2023-08-12T01:21:11;118349.16;;;-140.64;100.00
7930;BME280;4010;42.698;23.124;2023-08-12T01:23:43;118349.16;;;-140.64;100.00
7930;BME280;4010;42.698;23.124;2023-08-12T01:26:11;118349.16;;;-140.64;100.00
7930;BME280;4010;42.698;23.124;2023-08-12T01:28:37;118349.16;;;-140.64;100.00
7930;BME280;4010;42.698;23.124;2023-08-12T01:31:07;118349.16;;;-140.64;100.00
7930;BME280;4010;42.698;23.124;2023-08-12T01:33:40;118349.16;;;-140.64;100.00
7930;BME280;4010;42.698;23.124;2023-08-12T01:36:11;118349.16;;;-140.64;100.00
7930;BME280;4010;42.698;23.124;2023-08-12T01:38:39;118349.16;;;-140.64;100.00
7930;BME280;4010;42.698;23.124;2023-08-12T01:41:10;118349.16;;;-140.64;100.00
7930;BME280;4010;42.698;23.124;2023-08-12T01:43:37;118349.16;;;-140.64;100.00
7930;BME280;4010;42.698;23.124;2023-08-12T01:46:04;118349.16;;;-140.64;100.00
7930;BME280;4010;42.698;23.124;2023-08-12T01:48:31;118349.16;;;-140.64;100.00
7930;BME280;4010;42.698;23.124;2023-08-12T01:50:58;118349.16;;;-140.64;100.00
7930;BME280;4010;42.698;23.124;2023-08-12T01:53:25;118349.16;;;-140.64;100.00
7930;BME280;4010;42.698;23.124;2023-08-12T01:55:52;118349.16;;;-140.64;100.00
7930;BME280;4010;42.698;23.124;2023-08-12T01:58:20;118349.16;;;-140.64;100.00
7930;BME280;4010;42.698;23.124;2023-08-12T02:00:46;118349.16;;;-140.64;100.00
7930;BME280;4010;42.698;23.124;2023-08-12T02:03:13;118349.16;;;-140.64;100.00
7930;BME280;4010;42.698;23.124;2023-08-12T02:05:39;118349.16;;;-140.64;100.00
7930;BME280;4010;42.698;23.124;2023-08-12T02:08:07;118349.16;;;-140.64;100.00
7930;BME280;4010;42.698;23.124;2023-08-12T02:10:34;118349.16;;;-140.64;100.00
7930;BME280;4010;42.698;23.124;2023-08-12T02:13:00;118349.16;;;-140.64;100.00
7930;BME280;4010;42.698;23.124;2023-08-12T02:15:29;118349.16;;;-140.64;100.00
7930;BME280;4010;42.698;23.124;2023-08-12T02:17:56;118349.16;;;-140.64;100.00
7930;BME280;4010;42.698;23.124;2023-08-12T02:20:24;118349.16;;;-140.64;100.00
7930;BME280;4010;42.698;23.124;2023-08-12T02:22:50;118349.16;;;-140.64;100.00
7930;BME280;4010;42.698;23.124;2023-08-12T02:25:17;118349.16;;;-140.64;100.00
7930;BME280;4010;42.698;23.124;2023-08-12T02:27:44;118349.16;;;-140.64;100.00
7930;BME280;4010;42.698;23.124;2023-08-12T02:30:11;118349.16;;;-140.64;100.00
7930;BME280;4010;42.698;23.124;2023-08-12T02:32:39;118349.16;;;-140.64;100.00
7930;BME280;4010;42.698;23.124;2023-08-12T02:35:08;118349.16;;;-140.64;100.00
7930;BME280;4010;42.698;23.124;2023-08-12T02:37:35;118349.16;;;-140.64;100.00
7930;BME280;4010;42.698;23.124;2023-08-12T02:40:03;118349.16;;;-140.64;100.00
7930;BME280;4010;42.698;23.124;2023-08-12T02:42:31;118349.16;;;-140.64;100.00
7930;BME280;4010;42.698;23.124;2023-08-12T02:44:57;118349.16;;;-140.64;100.00
7930;BME280;4010;42.698;23.124;2023-08-12T02:47:25;118349.16;;;-140.64;100.00
7930;BME280;4010;42.698;23.124;2023-08-12T02:49:53;118349.16;;;-140.64;100.00
7930;BME280;4010;42.698;23.124;2023-08-12T02:52:19;118349.16;;;-140.64;100.00
7930;BME280;4010;42.698;23.124;2023-08-12T02:54:46;118349.16;;;-140.64;100.00
7930;BME280;4010;42.698;23.124;2023-08-12T02:57:13;118349.16;;;-140.64;100.00
7930;BME280;4010;42.698;23.124;2023-08-12T02:59:40;118349.16;;;-140.64;100.00
7930;BME280;4010;42.698;23.124;2023-08-12T03:02:06;118349.16;;;-140.64;100.00
7930;BME280;4010;42.698;23.124;2023-08-12T03:04:33;118349.16;;;-140.64;100.00
7930;BME280;4010;42.698;23.124;2023-08-12T03:07:01;118349.16;;;-140.64;100.00
7930;BME280;4010;42.698;23.124;2023-08-12T03:09:28;118349.16;;;-140.64;100.00
7930;BME280;4010;42.698;23.124;2023-08-12T03:11:54;118349.16;;;-140.64;100.00
7930;BME280;4010;42.698;23.124;2023-08-12T03:14:21;118349.16;;;-140.64;100.00
7930;BME280;4010;42.698;23.124;2023-08-12T03:16:48;118349.16;;;-140.64;100.00
7930;BME280;4010;42.698;23.124;2023-08-12T03:19:15;118349.16;;;-140.64;100.00
7930;BME280;4010;42.698;23.124;2023-08-12T03:21:41;118349.16;;;-140.64;100.00
7930;BME280;4010;42.698;23.124;2023-08-12T03:24:09;118349.16;;;-140.64;100.00
7930;BME280;4010;42.698;23.124;2023-08-12T03:26:36;118349.16;;;-140.64;100.00
7930;BME280;4010;42.698;23.124;2023-08-12T03:29:03;118349.16;;;-140.64;100.00
7930;BME280;4010;42.698;23.124;2023-08-12T03:31:30;118349.16;;;-140.64;100.00
7930;BME280;4010;42.698;23.124;2023-08-12T03:33:56;118349.16;;;-140.64;100.00
7930;BME280;4010;42.698;23.124;2023-08-12T03:36:23;118349.16;;;-140.64;100.00
7930;BME280;4010;42.698;23.124;2023-08-12T03:38:49;118349.16;;;-140.64;100.00
7930;BME280;4010;42.698;23.124;2023-08-12T03:41:18;118349.16;;;-140.64;100.00
7930;BME280;4010;42.698;23.124;2023-08-12T03:43:44;118349.16;;;-140.64;100.00
7930;BME280;4010;42.698;23.124;2023-08-12T03:46:11;118349.16;;;-140.64;100.00
7930;BME280;4010;42.698;23.124;2023-08-12T03:48:38;118349.16;;;-140.64;100.00
7930;BME280;4010;42.698;23.124;2023-08-12T03:51:04;118349.16;;;-140.64;100.00
7930;BME280;4010;42.698;23.124;2023-08-12T03:53:31;118349.16;;;-140.64;100.00
7930;BME280;4010;42.698;23.124;2023-08-12T03:55:58;118349.16;;;-140.64;100.00
7930;BME280;4010;42.698;23.124;2023-08-12T03:58:26;118349.16;;;-140.64;100.00
7930;BME280;4010;42.698;23.124;2023-08-12T04:00:53;118349.16;;;-140.64;100.00
7930;BME280;4010;42.698;23.124;2023-08-12T04:03:19;118349.16;;;-140.64;100.00
7930;BME280;4010;42.698;23.124;2023-08-12T04:05:49;118349.16;;;-140.64;100.00
7930;BME280;4010;42.698;23.124;2023-08-12T04:08:18;118349.16;;;-140.64;100.00
7930;BME280;4010;42.698;23.124;2023-08-12T04:10:45;118349.16;;;-140.64;100.00
7930;BME280;4010;42.698;23.124;2023-08-12T04:13:13;118349.16;;;-140.64;100.00
7930;BME280;4010;42.698;23.124;2023-08-12T04:15:42;118349.16;;;-140.64;98.32
7930;BME280;4010;42.698;23.124;2023-08-12T04:18:08;118349.16;;;-140.64;84.41
7930;BME280;4010;42.698;23.124;2023-08-12T04:20:37;118349.16;;;-140.64;72.18
7930;BME280;4010;42.698;23.124;2023-08-12T04:23:04;118349.16;;;-140.64;65.51
7930;BME280;4010;42.698;23.124;2023-08-12T04:25:30;118349.16;;;-140.64;64.03
7930;BME280;4010;42.698;23.124;2023-08-12T04:27:57;118349.16;;;-140.64;59.32
7930;BME280;4010;42.698;23.124;2023-08-12T04:30:24;118349.16;;;-140.64;54.70
7930;BME280;4010;42.698;23.124;2023-08-12T04:32:53;118349.16;;;-140.64;51.21
7930;BME280;4010;42.698;23.124;2023-08-12T04:35:19;118349.16;;;-140.64;49.67
7930;BME280;4010;42.698;23.124;2023-08-12T04:37:46;118349.16;;;-140.64;49.28
7930;BME280;4010;42.698;23.124;2023-08-12T04:40:13;118349.16;;;-140.64;47.64
7930;BME280;4010;42.698;23.124;2023-08-12T04:42:39;118349.16;;;-140.64;48.67
7930;BME280;4010;42.698;23.124;2023-08-12T04:45:06;118349.16;;;-140.64;46.67
7930;BME280;4010;42.698;23.124;2023-08-12T04:47:33;118349.16;;;-140.64;44.91
7930;BME280;4010;42.698;23.124;2023-08-12T04:50:01;118349.16;;;-140.64;46.34
7930;BME280;4010;42.698;23.124;2023-08-12T04:52:28;118349.16;;;-140.64;45.27
7930;BME280;4010;42.698;23.124;2023-08-12T04:54:55;118349.16;;;-140.64;44.97
7930;BME280;4010;42.698;23.124;2023-08-12T04:57:22;118349.16;;;-140.64;41.80
7930;BME280;4010;42.698;23.124;2023-08-12T04:59:48;118349.16;;;-140.64;39.49
7930;BME280;4010;42.698;23.124;2023-08-12T05:02:15;118349.16;;;-140.64;41.45
7930;BME280;4010;42.698;23.124;2023-08-12T05:04:47;118349.16;;;-140.64;38.57
7930;BME280;4010;42.698;23.124;2023-08-12T05:07:15;118349.16;;;-140.64;37.26
7930;BME280;4010;42.698;23.124;2023-08-12T05:09:42;118349.16;;;-140.64;35.71
7930;BME280;4010;42.698;23.124;2023-08-12T05:12:10;118349.16;;;-140.64;34.47
7930;BME280;4010;42.698;23.124;2023-08-12T05:14:37;118349.16;;;-140.64;32.96
7930;BME280;4010;42.698;23.124;2023-08-12T05:17:04;118349.16;;;-140.64;34.41
7930;BME280;4010;42.698;23.124;2023-08-12T05:19:31;118349.16;;;-140.64;34.97
7930;BME280;4010;42.698;23.124;2023-08-12T05:21:58;118349.16;;;-140.64;37.22
7930;BME280;4010;42.698;23.124;2023-08-12T05:24:26;118349.16;;;-140.64;37.80
7930;BME280;4010;42.698;23.124;2023-08-12T05:26:53;118349.16;;;-140.64;39.52
7930;BME280;4010;42.698;23.124;2023-08-12T05:29:19;118349.16;;;-140.64;41.94
7930;BME280;4010;42.698;23.124;2023-08-12T05:31:46;118349.16;;;-140.64;44.67
7930;BME280;4010;42.698;23.124;2023-08-12T05:34:13;118349.16;;;-140.64;46.30
7930;BME280;4010;42.698;23.124;2023-08-12T05:36:39;118349.16;;;-140.64;48.79
7930;BME280;4010;42.698;23.124;2023-08-12T05:39:06;118349.16;;;-140.64;46.99
7930;BME280;4010;42.698;23.124;2023-08-12T05:41:34;118349.16;;;-140.64;45.64
7930;BME280;4010;42.698;23.124;2023-08-12T05:44:01;118349.16;;;-140.64;43.23
7930;BME280;4010;42.698;23.124;2023-08-12T05:46:27;118349.16;;;-140.64;39.33
7930;BME280;4010;42.698;23.124;2023-08-12T05:48:54;118349.16;;;-140.64;38.64
7930;BME280;4010;42.698;23.124;2023-08-12T05:51:20;118349.16;;;-140.64;38.80
7930;BME280;4010;42.698;23.124;2023-08-12T05:53:48;118349.16;;;-140.64;39.00
7930;BME280;4010;42.698;23.124;2023-08-12T05:56:14;118349.16;;;-140.64;42.63
7930;BME280;4010;42.698;23.124;2023-08-12T05:58:42;118349.16;;;-140.64;38.84
7930;BME280;4010;42.698;23.124;2023-08-12T06:01:09;118349.16;;;-140.64;38.46
7930;BME280;4010;42.698;23.124;2023-08-12T06:03:36;118349.16;;;-140.64;37.04
7930;BME280;4010;42.698;23.124;2023-08-12T06:06:03;118349.16;;;-140.64;36.29
7930;BME280;4010;42.698;23.124;2023-08-12T06:08:29;118349.16;;;-140.64;34.79
7930;BME280;4010;42.698;23.124;2023-08-12T06:10:57;118349.16;;;-140.64;36.86
7930;BME280;4010;42.698;23.124;2023-08-12T06:13:23;118349.16;;;-140.64;37.95
7930;BME280;4010;42.698;23.124;2023-08-12T06:15:51;118349.16;;;-140.64;37.88
7930;BME280;4010;42.698;23.124;2023-08-12T06:18:18;118349.16;;;-140.64;39.86
7930;BME280;4010;42.698;23.124;2023-08-12T06:20:44;118349.16;;;-140.64;33.63
7930;BME280;4010;42.698;23.124;2023-08-12T06:23:11;118349.16;;;-140.64;36.37
7930;BME280;4010;42.698;23.124;2023-08-12T06:25:38;118349.16;;;-140.64;36.51
7930;BME280;4010;42.698;23.124;2023-08-12T06:28:05;118349.16;;;-140.64;36.02
7930;BME280;4010;42.698;23.124;2023-08-12T06:30:34;118349.16;;;-140.64;36.49
7930;BME280;4010;42.698;23.124;2023-08-12T06:33:02;118349.16;;;-140.64;36.44
7930;BME280;4010;42.698;23.124;2023-08-12T06:35:28;118349.16;;;-140.64;34.93
7930;BME280;4010;42.698;23.124;2023-08-12T06:37:55;118349.16;;;-140.64;34.22
7930;BME280;4010;42.698;23.124;2023-08-12T06:40:22;118349.16;;;-140.64;38.02
7930;BME280;4010;42.698;23.124;2023-08-12T06:42:48;118349.16;;;-140.64;36.84
7930;BME280;4010;42.698;23.124;2023-08-12T06:45:15;118349.16;;;-140.64;37.06
7930;BME280;4010;42.698;23.124;2023-08-12T06:47:41;118349.16;;;-140.64;38.90
7930;BME280;4010;42.698;23.124;2023-08-12T06:50:10;118349.16;;;-140.64;39.33
7930;BME280;4010;42.698;23.124;2023-08-12T06:52:36;118349.16;;;-140.64;37.44
7930;BME280;4010;42.698;23.124;2023-08-12T06:55:03;118349.16;;;-140.64;38.01
7930;BME280;4010;42.698;23.124;2023-08-12T06:57:30;118349.16;;;-140.64;41.63
7930;BME280;4010;42.698;23.124;2023-08-12T06:59:57;118349.16;;;-140.64;39.91
7930;BME280;4010;42.698;23.124;2023-08-12T07:02:23;118349.16;;;-140.64;41.53
7930;BME280;4010;42.698;23.124;2023-08-12T07:04:50;118349.16;;;-140.64;43.38
7930;BME280;4010;42.698;23.124;2023-08-12T07:07:18;118349.16;;;-140.64;42.79
7930;BME280;4010;42.698;23.124;2023-08-12T07:09:45;118349.16;;;-140.64;44.63
7930;BME280;4010;42.698;23.124;2023-08-12T07:12:12;118349.16;;;-140.64;52.22
7930;BME280;4010;42.698;23.124;2023-08-12T07:14:38;118349.16;;;-140.64;50.32
7930;BME280;4010;42.698;23.124;2023-08-12T07:17:05;118349.16;;;-140.64;51.54
7930;BME280;4010;42.698;23.124;2023-08-12T07:19:31;118349.16;;;-140.64;52.67
7930;BME280;4010;42.698;23.124;2023-08-12T07:21:58;118349.16;;;-140.64;53.55
7930;BME280;4010;42.698;23.124;2023-08-12T07:24:26;118349.16;;;-140.64;53.65
7930;BME280;4010;42.698;23.124;2023-08-12T07:26:53;118349.16;;;-140.64;48.92
7930;BME280;4010;42.698;23.124;2023-08-12T07:29:20;118349.16;;;-140.64;50.52
7930;BME280;4010;42.698;23.124;2023-08-12T07:31:47;118349.16;;;-140.64;49.98
7930;BME280;4010;42.698;23.124;2023-08-12T07:34:13;118349.16;;;-140.64;55.07
7930;BME280;4010;42.698;23.124;2023-08-12T07:36:40;118349.16;;;-140.64;54.59
7930;BME280;4010;42.698;23.124;2023-08-12T07:39:07;118349.16;;;-140.64;51.77
7930;BME280;4010;42.698;23.124;2023-08-12T07:41:35;118349.16;;;-140.64;51.11
7930;BME280;4010;42.698;23.124;2023-08-12T07:44:03;118349.16;;;-140.64;53.24
7930;BME280;4010;42.698;23.124;2023-08-12T07:46:30;118349.16;;;-140.64;52.25
7930;BME280;4010;42.698;23.124;2023-08-12T07:48:57;118349.16;;;-140.64;48.74
7930;BME280;4010;42.698;23.124;2023-08-12T07:51:23;118349.16;;;-140.64;50.07
7930;BME280;4010;42.698;23.124;2023-08-12T07:53:50;118349.16;;;-140.64;50.05
7930;BME280;4010;42.698;23.124;2023-08-12T07:56:17;118349.16;;;-140.64;50.63
7930;BME280;4010;42.698;23.124;2023-08-12T07:58:45;118349.16;;;-140.64;47.58
7930;BME280;4010;42.698;23.124;2023-08-12T08:01:13;118349.16;;;-140.64;48.97
7930;BME280;4010;42.698;23.124;2023-08-12T08:03:39;118349.16;;;-140.64;47.82
7930;BME280;4010;42.698;23.124;2023-08-12T08:06:06;118349.16;;;-140.64;51.76
7930;BME280;4010;42.698;23.124;2023-08-12T08:08:33;118349.16;;;-140.64;51.77
7930;BME280;4010;42.698;23.124;2023-08-12T08:11:00;118349.16;;;-140.64;51.05
7930;BME280;4010;42.698;23.124;2023-08-12T08:13:26;118349.16;;;-140.64;48.83
7930;BME280;4010;42.698;23.124;2023-08-12T08:15:55;118349.16;;;-140.64;48.51
7930;BME280;4010;42.698;23.124;2023-08-12T08:18:21;118349.16;;;-140.64;47.86
7930;BME280;4010;42.698;23.124;2023-08-12T08:20:48;118349.16;;;-140.64;47.33
7930;BME280;4010;42.698;23.124;2023-08-12T08:23:15;118349.16;;;-140.64;49.06
7930;BME280;4010;42.698;23.124;2023-08-12T08:25:41;118349.16;;;-140.64;46.98
7930;BME280;4010;42.698;23.124;2023-08-12T08:28:08;118349.16;;;-140.64;48.65
7930;BME280;4010;42.698;23.124;2023-08-12T08:30:35;118349.16;;;-140.64;51.16
7930;BME280;4010;42.698;23.124;2023-08-12T08:33:03;118349.16;;;-140.64;47.71
7930;BME280;4010;42.698;23.124;2023-08-12T08:35:30;118349.16;;;-140.64;46.62
7930;BME280;4010;42.698;23.124;2023-08-12T08:37:56;118349.16;;;-140.64;47.14
7930;BME280;4010;42.698;23.124;2023-08-12T08:40:23;118349.16;;;-140.64;46.87
7930;BME280;4010;42.698;23.124;2023-08-12T08:42:52;118349.16;;;-140.64;46.70
7930;BME280;4010;42.698;23.124;2023-08-12T08:45:21;118349.16;;;-140.64;50.18
7930;BME280;4010;42.698;23.124;2023-08-12T08:47:49;118349.16;;;-140.64;48.02
7930;BME280;4010;42.698;23.124;2023-08-12T08:50:17;118349.16;;;-140.64;47.98
7930;BME280;4010;42.698;23.124;2023-08-12T08:52:44;118349.16;;;-140.64;47.35
7930;BME280;4010;42.698;23.124;2023-08-12T08:55:12;118349.16;;;-140.64;48.59
7930;BME280;4010;42.698;23.124;2023-08-12T08:57:38;118349.16;;;-140.64;46.08
7930;BME280;4010;42.698;23.124;2023-08-12T09:00:07;118349.16;;;-140.64;44.68
7930;BME280;4010;42.698;23.124;2023-08-12T09:02:35;118349.16;;;-140.64;47.83
7930;BME280;4010;42.698;23.124;2023-08-12T09:05:03;118349.16;;;-140.64;46.36
7930;BME280;4010;42.698;23.124;2023-08-12T09:07:32;118349.16;;;-140.64;48.07
7930;BME280;4010;42.698;23.124;2023-08-12T09:10:00;118349.16;;;-140.64;43.56
7930;BME280;4010;42.698;23.124;2023-08-12T09:12:29;118349.16;;;-140.64;44.21
7930;BME280;4010;42.698;23.124;2023-08-12T09:14:57;118349.16;;;-140.64;44.90
7930;BME280;4010;42.698;23.124;2023-08-12T09:17:24;118349.16;;;-140.64;44.42
7930;BME280;4010;42.698;23.124;2023-08-12T09:19:51;118349.16;;;-140.64;44.24
7930;BME280;4010;42.698;23.124;2023-08-12T09:22:17;118349.16;;;-140.64;44.41
7930;BME280;4010;42.698;23.124;2023-08-12T09:24:45;118349.16;;;-140.64;48.94
7930;BME280;4010;42.698;23.124;2023-08-12T09:27:17;118349.16;;;-140.64;44.03
7930;BME280;4010;42.698;23.124;2023-08-12T09:29:43;118349.16;;;-140.64;46.78
7930;BME280;4010;42.698;23.124;2023-08-12T09:32:11;118349.16;;;-140.64;43.52
7930;BME280;4010;42.698;23.124;2023-08-12T09:34:38;118349.16;;;-140.64;42.89
7930;BME280;4010;42.698;23.124;2023-08-12T09:37:04;118349.16;;;-140.64;44.41
7930;BME280;4010;42.698;23.124;2023-08-12T09:39:31;118349.16;;;-140.64;45.80
7930;BME280;4010;42.698;23.124;2023-08-12T09:42:00;118349.16;;;-140.64;42.42
7930;BME280;4010;42.698;23.124;2023-08-12T09:44:26;118349.16;;;-140.64;43.01
7930;BME280;4010;42.698;23.124;2023-08-12T09:46:56;118349.16;;;-140.64;46.31
7930;BME280;4010;42.698;23.124;2023-08-12T09:49:24;118349.16;;;-140.64;41.74
7930;BME280;4010;42.698;23.124;2023-08-12T09:51:51;118349.16;;;-140.64;43.36
7930;BME280;4010;42.698;23.124;2023-08-12T09:54:18;118349.16;;;-140.64;43.92
7930;BME280;4010;42.698;23.124;2023-08-12T09:56:47;118349.16;;;-140.64;44.24
7930;BME280;4010;42.698;23.124;2023-08-12T09:59:19;118349.16;;;-140.64;45.91
7930;BME280;4010;42.698;23.124;2023-08-12T10:01:47;118349.16;;;-140.64;43.58
7930;BME280;4010;42.698;23.124;2023-08-12T10:04:15;118349.16;;;-140.64;43.56
7930;BME280;4010;42.698;23.124;2023-08-12T10:06:44;118349.16;;;-140.64;41.69
7930;BME280;4010;42.698;23.124;2023-08-12T10:09:11;118349.16;;;-140.64;42.18
7930;BME280;4010;42.698;23.124;2023-08-12T10:11:38;118349.16;;;-140.64;44.19
7930;BME280;4010;42.698;23.124;2023-08-12T10:14:05;118349.16;;;-140.64;42.78
7930;BME280;4010;42.698;23.124;2023-08-12T10:16:33;118349.16;;;-140.64;45.25
7930;BME280;4010;42.698;23.124;2023-08-12T10:19:01;118349.16;;;-140.64;41.66
7930;BME280;4010;42.698;23.124;2023-08-12T10:21:28;118349.16;;;-140.64;40.62
7930;BME280;4010;42.698;23.124;2023-08-12T10:23:57;118349.16;;;-140.64;40.43
7930;BME280;4010;42.698;23.124;2023-08-12T10:26:24;118349.16;;;-140.64;39.97
7930;BME280;4010;42.698;23.124;2023-08-12T10:28:51;118349.16;;;-140.64;40.00
7930;BME280;4010;42.698;23.124;2023-08-12T10:31:18;118349.16;;;-140.64;38.95
7930;BME280;4010;42.698;23.124;2023-08-12T10:33:47;118349.16;;;-140.64;39.89
7930;BME280;4010;42.698;23.124;2023-08-12T10:36:15;118349.16;;;-140.64;38.51
7930;BME280;4010;42.698;23.124;2023-08-12T10:38:44;118349.16;;;-140.64;40.91
7930;BME280;4010;42.698;23.124;2023-08-12T10:41:15;118349.16;;;-140.64;37.96
7930;BME280;4010;42.698;23.124;2023-08-12T10:43:49;118349.16;;;-140.64;39.68
7930;BME280;4010;42.698;23.124;2023-08-12T10:46:21;118349.16;;;-140.64;39.57
7930;BME280;4010;42.698;23.124;2023-08-12T10:49:02;118349.16;;;-140.64;40.52
7930;BME280;4010;42.698;23.124;2023-08-12T10:51:44;118349.16;;;-140.64;41.18
7930;BME280;4010;42.698;23.124;2023-08-12T10:54:15;118349.16;;;-140.64;39.82
7930;BME280;4010;42.698;23.124;2023-08-12T10:57:07;118349.16;;;-140.64;38.75
7930;BME280;4010;42.698;23.124;2023-08-12T10:59:52;118349.16;;;-140.64;38.26
7930;BME280;4010;42.698;23.124;2023-08-12T11:02:26;118349.16;;;-140.64;37.41
7930;BME280;4010;42.698;23.124;2023-08-12T11:04:57;118349.16;;;-140.64;36.66
7930;BME280;4010;42.698;23.124;2023-08-12T11:07:32;118349.16;;;-140.64;35.45
7930;BME280;4010;42.698;23.124;2023-08-12T11:10:04;118349.16;;;-140.64;37.37
7930;BME280;4010;42.698;23.124;2023-08-12T11:12:33;118349.16;;;-140.64;37.68
7930;BME280;4010;42.698;23.124;2023-08-12T11:15:01;118349.16;;;-140.64;35.54
7930;BME280;4010;42.698;23.124;2023-08-12T11:17:32;118349.16;;;-140.64;35.35
7930;BME280;4010;42.698;23.124;2023-08-12T11:20:01;118349.16;;;-140.64;35.09
7930;BME280;4010;42.698;23.124;2023-08-12T11:22:30;118349.16;;;-140.64;35.80
7930;BME280;4010;42.698;23.124;2023-08-12T11:24:56;118349.16;;;-140.64;36.86
7930;BME280;4010;42.698;23.124;2023-08-12T11:27:23;118349.16;;;-140.64;34.82
7930;BME280;4010;42.698;23.124;2023-08-12T11:29:50;118349.16;;;-140.64;36.64
7930;BME280;4010;42.698;23.124;2023-08-12T11:32:17;118349.16;;;-140.64;34.07
7930;BME280;4010;42.698;23.124;2023-08-12T11:34:44;118349.16;;;-140.64;36.07
7930;BME280;4010;42.698;23.124;2023-08-12T11:37:13;118349.16;;;-140.64;33.65
7930;BME280;4010;42.698;23.124;2023-08-12T11:39:39;118349.16;;;-140.64;34.44
7930;BME280;4010;42.698;23.124;2023-08-12T11:42:06;118349.16;;;-140.64;32.74
7930;BME280;4010;42.698;23.124;2023-08-12T11:44:33;118349.16;;;-140.64;33.40
7930;BME280;4010;42.698;23.124;2023-08-12T11:46:59;118349.16;;;-140.64;33.61
7930;BME280;4010;42.698;23.124;2023-08-12T11:49:26;118349.16;;;-140.64;34.17
7930;BME280;4010;42.698;23.124;2023-08-12T11:51:53;118349.16;;;-140.64;32.96
7930;BME280;4010;42.698;23.124;2023-08-12T11:54:21;118349.16;;;-140.64;34.12
7930;BME280;4010;42.698;23.124;2023-08-12T11:56:47;118349.16;;;-140.64;32.12
7930;BME280;4010;42.698;23.124;2023-08-12T11:59:14;118349.16;;;-140.64;34.51
7930;BME280;4010;42.698;23.124;2023-08-12T12:01:41;118349.16;;;-140.64;35.68
7930;BME280;4010;42.698;23.124;2023-08-12T12:04:14;118349.16;;;-140.64;35.54
7930;BME280;4010;42.698;23.124;2023-08-12T12:06:41;118349.16;;;-140.64;36.83
7930;BME280;4010;42.698;23.124;2023-08-12T12:09:09;118349.16;;;-140.64;35.65
7930;BME280;4010;42.698;23.124;2023-08-12T12:11:38;118349.16;;;-140.64;35.04
7930;BME280;4010;42.698;23.124;2023-08-12T12:14:07;118349.16;;;-140.64;37.08
7930;BME280;4010;42.698;23.124;2023-08-12T12:16:38;118349.16;;;-140.64;37.31
7930;BME280;4010;42.698;23.124;2023-08-12T12:19:09;118349.16;;;-140.64;35.09
7930;BME280;4010;42.698;23.124;2023-08-12T12:21:39;118349.16;;;-140.64;36.64
7930;BME280;4010;42.698;23.124;2023-08-12T12:24:07;118349.16;;;-140.64;37.53
7930;BME280;4010;42.698;23.124;2023-08-12T12:26:34;118349.16;;;-140.64;40.55
7930;BME280;4010;42.698;23.124;2023-08-12T12:29:03;118349.16;;;-140.64;38.37
7930;BME280;4010;42.698;23.124;2023-08-12T12:31:31;118349.16;;;-140.64;37.68
7930;BME280;4010;42.698;23.124;2023-08-12T12:33:58;118349.16;;;-140.64;37.55
7930;BME280;4010;42.698;23.124;2023-08-12T12:36:25;118349.16;;;-140.64;39.12
7930;BME280;4010;42.698;23.124;2023-08-12T12:38:51;118349.16;;;-140.64;39.40